Time;durP1;ratioP1;P1;durP2;ratioP2;P2;SDS_P1;SDS_P2;PMS_P1;PMS_P2;Temp;Humidity;BMP_temperature;BMP_pressure;BME280_temperature;BME280_humidity;BME280_pressure;Samples;Min_cycle;Max_cycle;Signal;HPM_P1;HPM_P2
2022/07/19 00:00:19;;;;;;;6.28;2.10;;;23.60;55.40;;;;;;5043770;28;22794;-76
2022/07/19 00:02:48;;;;;;;3.55;1.90;;;23.60;56.00;;;;;;5043434;28;20194;-74
2022/07/19 00:05:17;;;;;;;6.15;1.83;;;23.60;55.40;;;;;;5067690;28;20207;-76
2022/07/19 00:07:46;;;;;;;5.60;2.10;;;23.60;55.60;;;;;;5040334;28;20198;-75
2022/07/19 00:10:19;;;;;;;4.07;2.03;;;23.60;55.50;;;;;;5045065;28;20195;-76
2022/07/19 00:12:48;;;;;;;4.15;1.50;;;23.50;56.10;;;;;;5040285;28;20182;-75
2022/07/19 00:15:17;;;;;;;8.30;1.92;;;23.50;55.50;;;;;;5039772;28;20256;-76
2022/07/19 00:17:49;;;;;;;5.00;2.03;;;23.50;55.50;;;;;;5047157;28;20225;-75
2022/07/19 00:20:20;;;;;;;3.38;1.80;;;23.50;55.60;;;;;;5045993;28;20194;-75
2022/07/19 00:22:49;;;;;;;6.38;1.85;;;23.40;55.60;;;;;;5042038;28;20187;-76
2022/07/19 00:25:17;;;;;;;3.65;1.63;;;23.40;55.70;;;;;;5049232;28;20198;-76
2022/07/19 00:27:46;;;;;;;3.83;2.05;;;23.30;55.70;;;;;;5054904;28;20195;-75
2022/07/19 00:30:14;;;;;;;4.90;1.60;;;23.30;55.70;;;;;;5045693;28;20564;-75
2022/07/19 00:32:43;;;;;;;4.05;1.95;;;23.30;56.40;;;;;;5050397;28;20186;-75
2022/07/19 00:35:13;;;;;;;6.28;1.95;;;23.30;55.80;;;;;;5054402;28;20198;-76
2022/07/19 00:37:41;;;;;;;5.57;1.80;;;23.20;55.80;;;;;;5058221;28;20202;-76
2022/07/19 00:40:16;;;;;;;3.95;1.95;;;23.20;55.80;;;;;;5049584;28;20277;-76
2022/07/19 00:42:45;;;;;;;5.50;1.80;;;23.20;55.80;;;;;;5047379;28;20229;-77
2022/07/19 00:45:14;;;;;;;8.15;1.85;;;23.20;55.90;;;;;;5040128;28;20195;-75
2022/07/19 00:47:42;;;;;;;4.65;1.83;;;23.10;55.80;;;;;;5038962;28;20742;-76
2022/07/19 00:50:12;;;;;;;6.18;1.80;;;23.10;55.90;;;;;;5047170;28;20957;-75
2022/07/19 00:52:41;;;;;;;4.97;1.95;;;23.10;55.90;;;;;;5048095;28;20195;-76
2022/07/19 00:55:10;;;;;;;5.30;2.10;;;23.00;55.90;;;;;;5043211;28;20195;-75
2022/07/19 00:57:39;;;;;;;5.15;1.50;;;23.00;55.90;;;;;;5043759;28;20587;-75
2022/07/19 01:00:10;;;;;;;6.38;1.55;;;23.00;55.90;;;;;;5051350;28;20191;-76
2022/07/19 01:02:38;;;;;;;3.75;1.70;;;23.00;55.80;;;;;;5042566;28;20211;-76
2022/07/19 01:05:09;;;;;;;5.28;2.00;;;23.00;55.80;;;;;;5045008;28;21388;-77
2022/07/19 01:07:41;;;;;;;5.80;1.80;;;23.00;55.70;;;;;;5054016;28;20727;-75
2022/07/19 01:10:11;;;;;;;8.00;2.05;;;23.00;55.80;;;;;;5045216;28;20201;-76
2022/07/19 01:12:40;;;;;;;4.18;1.77;;;22.90;55.80;;;;;;5047084;28;20648;-75
2022/07/19 01:15:19;;;;;;;3.78;1.67;;;22.90;55.70;;;;;;5045505;28;20234;-75
2022/07/19 01:17:48;;;;;;;4.22;1.73;;;22.90;55.70;;;;;;5046780;28;20190;-75
2022/07/19 01:20:18;;;;;;;2.83;1.45;;;22.90;55.80;;;;;;5045813;28;20195;-74
2022/07/19 01:22:48;;;;;;;4.35;1.52;;;22.90;55.80;;;;;;5044085;28;20222;-75
2022/07/19 01:25:17;;;;;;;3.55;1.40;;;22.90;55.80;;;;;;5042635;28;20785;-75
2022/07/19 01:27:47;;;;;;;4.93;1.70;;;22.80;55.80;;;;;;5049666;28;20195;-76
2022/07/19 01:30:18;;;;;;;2.65;1.50;;;22.80;55.80;;;;;;5049032;28;20191;-76
2022/07/19 01:32:46;;;;;;;2.80;1.45;;;22.80;55.80;;;;;;5040285;28;20596;-75
2022/07/19 01:35:15;;;;;;;3.20;1.77;;;22.80;55.70;;;;;;5046920;28;20202;-75
2022/07/19 01:37:44;;;;;;;5.80;1.85;;;22.80;55.70;;;;;;5055642;28;20194;-76
2022/07/19 01:40:16;;;;;;;5.88;1.80;;;22.80;55.70;;;;;;5048120;28;20206;-75
2022/07/19 01:42:45;;;;;;;5.25;2.08;;;22.70;55.70;;;;;;5048415;28;20218;-75
2022/07/19 01:45:15;;;;;;;7.47;2.33;;;22.70;55.70;;;;;;5048885;28;20194;-75
2022/07/19 01:47:44;;;;;;;7.70;2.92;;;22.70;55.70;;;;;;5040344;28;20191;-74
2022/07/19 01:50:15;;;;;;;6.05;2.05;;;22.70;55.70;;;;;;5042056;28;20194;-76
2022/07/19 01:52:44;;;;;;;5.68;2.35;;;22.70;55.80;;;;;;5048185;28;20187;-74
2022/07/19 01:55:19;;;;;;;5.45;2.10;;;22.60;55.80;;;;;;5051695;28;20349;-74
2022/07/19 01:57:48;;;;;;;5.93;2.17;;;22.60;55.70;;;;;;5045571;28;20222;-76
2022/07/19 02:00:17;;;;;;;5.30;2.17;;;22.50;55.70;;;;;;5062958;28;20259;-73
2022/07/19 02:02:45;;;;;;;4.70;1.80;;;22.50;55.80;;;;;;5060268;28;20576;-75
2022/07/19 02:05:14;;;;;;;4.57;2.30;;;22.50;55.90;;;;;;5049205;28;20268;-74
2022/07/19 02:07:47;;;;;;;7.53;1.85;;;22.40;55.80;;;;;;5054071;28;20232;-76
2022/07/19 02:10:18;;;;;;;3.17;1.50;;;22.40;55.90;;;;;;5058704;28;21228;-75
2022/07/19 02:12:47;;;;;;;7.17;1.90;;;22.40;56.00;;;;;;5056088;28;20197;-74
2022/07/19 02:15:15;;;;;;;4.32;1.70;;;22.30;56.00;;;;;;5061522;28;20226;-75
2022/07/19 02:17:43;;;;;;;4.50;1.73;;;22.30;56.00;;;;;;5043661;28;20203;-74
2022/07/19 02:20:13;;;;;;;4.57;1.70;;;22.30;56.10;;;;;;5056665;28;21117;-73
2022/07/19 02:22:42;;;;;;;5.83;1.83;;;22.20;56.10;;;;;;5052707;28;20246;-75
2022/07/19 02:25:11;;;;;;;4.63;1.40;;;22.20;56.10;;;;;;5048881;28;20500;-75
2022/07/19 02:27:42;;;;;;;4.17;1.70;;;22.20;56.10;;;;;;5052375;28;20197;-76
2022/07/19 02:30:12;;;;;;;5.60;2.00;;;22.20;56.20;;;;;;5043117;28;21351;-75
2022/07/19 02:32:40;;;;;;;4.13;1.53;;;22.10;56.20;;;;;;5059640;28;20332;-75
2022/07/19 02:35:10;;;;;;;3.90;1.50;;;22.20;56.30;;;;;;5047727;28;20227;-75
2022/07/19 02:37:39;;;;;;;5.50;1.50;;;22.10;56.30;;;;;;5059783;28;20194;-76
2022/07/19 02:40:09;;;;;;;3.30;1.67;;;22.10;56.30;;;;;;5042133;28;20696;-76
2022/07/19 02:42:38;;;;;;;5.03;1.60;;;22.10;56.40;;;;;;5039609;28;20233;-75
2022/07/19 02:45:08;;;;;;;3.20;1.37;;;22.10;56.50;;;;;;5047514;28;20198;-75
2022/07/19 02:47:38;;;;;;;3.83;1.40;;;22.00;56.50;;;;;;5040462;28;20198;-74
2022/07/19 02:50:08;;;;;;;4.97;1.57;;;22.10;56.50;;;;;;5041469;28;20191;-75
2022/07/19 02:52:36;;;;;;;2.97;1.43;;;22.00;56.50;;;;;;5043830;28;22716;-75
2022/07/19 02:55:06;;;;;;;6.23;1.57;;;22.00;56.50;;;;;;5053559;28;20274;-74
2022/07/19 02:57:34;;;;;;;6.90;1.60;;;22.00;56.50;;;;;;5043640;28;20191;-75
2022/07/19 03:00:03;;;;;;;3.70;1.80;;;22.00;56.50;;;;;;5039982;28;20198;-74
2022/07/19 03:02:33;;;;;;;4.23;1.50;;;21.90;56.40;;;;;;5040842;28;20223;-75
2022/07/19 03:05:02;;;;;;;2.83;1.50;;;22.00;56.50;;;;;;5040072;28;20594;-75
2022/07/19 03:07:30;;;;;;;3.40;1.60;;;22.00;56.50;;;;;;5048328;28;21810;-76
2022/07/19 03:09:59;;;;;;;3.50;1.90;;;21.90;56.50;;;;;;5054554;28;20967;-76
2022/07/19 03:12:28;;;;;;;6.23;1.37;;;21.90;56.50;;;;;;5047643;28;20191;-74
2022/07/19 03:14:56;;;;;;;3.80;1.27;;;21.90;56.60;;;;;;5039720;28;21243;-76
2022/07/19 03:17:25;;;;;;;3.57;1.40;;;21.90;56.50;;;;;;5039704;28;20194;-75
2022/07/19 03:19:55;;;;;;;8.00;1.90;;;21.90;56.60;;;;;;5042236;28;21562;-77
2022/07/19 03:22:24;;;;;;;4.17;1.57;;;21.90;56.60;;;;;;5050487;28;21134;-75
2022/07/19 03:24:52;;;;;;;3.57;1.60;;;21.90;56.70;;;;;;5041454;28;20199;-76
2022/07/19 03:27:21;;;;;;;3.17;1.40;;;21.90;56.70;;;;;;5039572;28;20198;-74
2022/07/19 03:29:50;;;;;;;3.93;1.77;;;21.80;56.70;;;;;;5042954;28;20323;-76
2022/07/19 03:32:18;;;;;;;3.40;1.47;;;21.90;56.80;;;;;;5042239;28;20195;-74
2022/07/19 03:34:46;;;;;;;5.07;2.10;;;21.80;56.90;;;;;;5038029;28;20202;-74
2022/07/19 03:37:16;;;;;;;2.80;1.50;;;21.90;57.00;;;;;;5041147;28;20662;-75
2022/07/19 03:39:45;;;;;;;4.50;1.90;;;21.80;57.00;;;;;;5043620;28;20199;-78
2022/07/19 03:42:13;;;;;;;5.17;1.70;;;21.90;57.20;;;;;;5040850;28;20422;-75
2022/07/19 03:44:41;;;;;;;3.67;1.60;;;21.90;57.30;;;;;;5047316;28;20195;-76
2022/07/19 03:47:10;;;;;;;3.50;1.60;;;21.90;57.50;;;;;;5045958;28;20209;-75
2022/07/19 03:49:38;;;;;;;3.80;1.80;;;21.90;57.60;;;;;;5046719;28;20446;-76
2022/07/19 03:52:07;;;;;;;3.10;1.43;;;21.90;57.70;;;;;;5044813;28;20197;-75
2022/07/19 03:54:36;;;;;;;5.00;1.57;;;21.90;57.70;;;;;;5046094;28;20212;-75
2022/07/19 03:57:05;;;;;;;4.43;1.30;;;21.90;57.60;;;;;;5050450;28;20195;-77
2022/07/19 03:59:33;;;;;;;7.17;1.87;;;21.90;57.80;;;;;;5039721;28;20195;-74
2022/07/19 04:02:02;;;;;;;7.37;1.30;;;21.90;57.90;;;;;;5039437;28;20309;-76
2022/07/19 04:04:30;;;;;;;4.73;1.60;;;21.90;57.80;;;;;;5040420;28;20226;-76
2022/07/19 04:06:59;;;;;;;3.93;1.43;;;22.00;57.90;;;;;;5038666;28;20206;-76
2022/07/19 04:09:27;;;;;;;6.03;1.83;;;22.00;57.90;;;;;;5040239;28;20672;-76
2022/07/19 04:11:57;;;;;;;3.10;1.60;;;22.00;57.80;;;;;;5041652;28;20194;-77
2022/07/19 04:14:25;;;;;;;5.93;2.00;;;22.00;57.80;;;;;;5047692;28;20313;-76
2022/07/19 04:16:54;;;;;;;4.57;1.67;;;22.00;58.10;;;;;;5043227;28;20207;-75
2022/07/19 04:19:22;;;;;;;3.50;1.60;;;22.10;58.10;;;;;;5047442;28;20691;-76
2022/07/19 04:21:51;;;;;;;3.33;1.90;;;22.10;58.10;;;;;;5049063;28;20206;-76
2022/07/19 04:24:19;;;;;;;5.10;2.07;;;22.10;58.20;;;;;;5042690;28;20217;-77
2022/07/19 04:26:47;;;;;;;8.27;2.20;;;22.10;58.10;;;;;;5052998;28;20201;-76
2022/07/19 04:29:17;;;;;;;3.60;1.80;;;22.20;58.10;;;;;;5052197;28;20670;-77
2022/07/19 04:31:45;;;;;;;4.23;1.80;;;22.20;58.90;;;;;;5059020;28;20195;-76
2022/07/19 04:34:14;;;;;;;5.77;1.80;;;22.20;58.20;;;;;;5057379;28;20570;-77
2022/07/19 04:36:42;;;;;;;3.55;1.90;;;22.30;58.20;;;;;;5051505;28;20201;-76
2022/07/19 04:39:11;;;;;;;4.10;2.05;;;22.30;58.40;;;;;;5048982;28;20199;-75
2022/07/19 04:41:39;;;;;;;5.45;1.77;;;22.40;58.30;;;;;;5049592;28;20228;-76
2022/07/19 04:44:07;;;;;;;3.43;1.70;;;22.40;58.30;;;;;;5055060;28;20221;-76
2022/07/19 04:46:37;;;;;;;3.30;1.55;;;22.50;58.30;;;;;;5061028;28;20194;-76
2022/07/19 04:49:12;;;;;;;3.33;1.48;;;22.50;58.30;;;;;;5061671;28;20200;-76
2022/07/19 04:51:40;;;;;;;6.07;1.63;;;22.60;58.30;;;;;;5053654;28;20199;-77
2022/07/19 04:54:08;;;;;;;3.05;1.42;;;22.60;58.20;;;;;;5059675;28;20202;-75
2022/07/19 04:56:37;;;;;;;2.70;1.40;;;22.70;58.10;;;;;;5060817;28;20209;-75
2022/07/19 04:59:06;;;;;;;4.60;2.40;;;22.70;57.90;;;;;;5060690;28;20194;-75
2022/07/19 05:01:35;;;;;;;5.35;1.92;;;22.80;57.80;;;;;;5055210;28;20182;-76
2022/07/19 05:04:05;;;;;;;3.08;1.30;;;22.80;58.50;;;;;;5053252;28;20215;-78
2022/07/19 05:06:34;;;;;;;5.28;1.33;;;22.90;57.70;;;;;;5062934;28;20193;-77
2022/07/19 05:09:02;;;;;;;6.03;1.55;;;23.00;57.60;;;;;;5054247;28;20199;-78
2022/07/19 05:11:31;;;;;;;5.60;1.58;;;23.00;57.40;;;;;;5064597;28;20642;-76
2022/07/19 05:13:59;;;;;;;5.28;1.55;;;23.10;57.30;;;;;;5064259;28;20890;-76
2022/07/19 05:16:28;;;;;;;2.50;1.00;;;23.20;57.00;;;;;;5060800;28;20251;-79
2022/07/19 05:18:56;;;;;;;2.75;1.27;;;23.20;56.80;;;;;;5055009;28;20671;-76
2022/07/19 05:21:30;;;;;;;5.63;1.40;;;23.40;56.80;;;;;;5058663;28;20208;-77
2022/07/19 05:23:59;;;;;;;3.83;1.48;;;23.40;56.50;;;;;;5053928;28;20218;-76
2022/07/19 05:26:27;;;;;;;2.10;1.08;;;23.50;56.40;;;;;;5057119;28;20195;-76
2022/07/19 05:28:56;;;;;;;4.13;1.17;;;23.60;56.30;;;;;;5055079;28;20182;-75
2022/07/19 05:31:25;;;;;;;4.03;1.02;;;23.60;56.00;;;;;;5053140;28;20201;-76
2022/07/19 05:33:54;;;;;;;2.67;1.27;;;23.70;55.80;;;;;;5056123;28;20222;-75
2022/07/19 05:36:23;;;;;;;4.25;1.30;;;23.80;55.80;;;;;;5057910;28;20683;-76
2022/07/19 05:38:53;;;;;;;2.75;1.20;;;23.90;55.70;;;;;;5068294;28;20742;-76
2022/07/19 05:41:21;;;;;;;2.40;1.20;;;24.00;55.50;;;;;;5066822;28;20190;-76
2022/07/19 05:43:53;;;;;;;2.17;1.00;;;24.00;55.40;;;;;;5066093;28;20206;-76
2022/07/19 05:46:21;;;;;;;2.65;1.20;;;24.10;55.30;;;;;;5068511;28;20873;-76
2022/07/19 05:48:50;;;;;;;3.08;1.10;;;24.20;54.90;;;;;;5055694;28;20211;-76
2022/07/19 05:51:18;;;;;;;2.17;1.10;;;24.30;54.20;;;;;;5077338;28;20194;-75
2022/07/19 05:53:47;;;;;;;4.85;1.10;;;24.40;53.60;;;;;;5067242;28;20546;-77
2022/07/19 05:56:16;;;;;;;8.23;3.13;;;24.40;53.30;;;;;;5075038;28;20265;-76
2022/07/19 05:58:45;;;;;;;3.22;1.00;;;24.50;53.60;;;;;;5067197;28;20269;-76
2022/07/19 06:01:19;;;;;;;3.63;1.20;;;24.60;53.70;;;;;;5066631;28;20203;-76
2022/07/19 06:03:49;;;;;;;3.53;1.35;;;24.70;53.60;;;;;;5062081;28;20209;-76
2022/07/19 06:06:27;;;;;;;2.42;1.20;;;24.80;53.40;;;;;;5059116;28;20299;-76
2022/07/19 06:08:56;;;;;;;2.75;0.90;;;25.00;53.20;;;;;;5064951;28;20699;-74
2022/07/19 06:11:26;;;;;;;1.85;0.80;;;25.00;52.40;;;;;;5065041;28;20190;-75
2022/07/19 06:13:55;;;;;;;2.65;0.90;;;25.10;52.20;;;;;;5064100;28;20194;-74
2022/07/19 06:16:24;;;;;;;3.22;0.98;;;25.20;51.20;;;;;;5065462;28;20546;-77
2022/07/19 06:18:53;;;;;;;2.08;0.85;;;25.30;51.10;;;;;;5073628;28;20278;-77
2022/07/19 06:21:22;;;;;;;2.38;1.20;;;25.40;51.00;;;;;;5061968;28;20205;-76
2022/07/19 06:23:50;;;;;;;4.93;1.38;;;25.50;51.20;;;;;;5075733;28;20226;-77
2022/07/19 06:26:19;;;;;;;3.72;1.00;;;25.50;51.30;;;;;;5067544;28;20209;-76
2022/07/19 06:28:48;;;;;;;4.95;0.98;;;25.60;51.50;;;;;;5064810;28;20190;-77
2022/07/19 06:31:17;;;;;;;1.58;0.80;;;25.70;51.30;;;;;;5066671;28;20198;-77
2022/07/19 06:33:47;;;;;;;1.98;0.80;;;25.80;51.30;;;;;;5070237;28;20255;-77
2022/07/19 06:36:17;;;;;;;1.65;0.70;;;25.80;50.60;;;;;;5066155;28;20194;-76
2022/07/19 06:38:45;;;;;;;5.60;0.90;;;25.90;50.20;;;;;;5063567;28;20194;-78
2022/07/19 06:41:14;;;;;;;2.00;0.70;;;26.00;50.00;;;;;;5071670;28;20208;-78
2022/07/19 06:43:44;;;;;;;2.58;0.70;;;26.10;49.30;;;;;;5068232;28;20856;-77
2022/07/19 06:46:13;;;;;;;4.45;1.05;;;26.10;49.30;;;;;;5067929;28;20562;-78
2022/07/19 06:48:42;;;;;;;2.72;1.40;;;26.20;48.90;;;;;;5067020;28;20203;-77
2022/07/19 06:51:11;;;;;;;3.13;0.93;;;26.30;48.40;;;;;;5071205;28;20194;-77
2022/07/19 06:53:39;;;;;;;7.65;1.10;;;26.40;48.20;;;;;;5066931;28;20192;-75
2022/07/19 06:56:08;;;;;;;5.28;1.50;;;26.40;47.80;;;;;;5067114;28;20202;-77
2022/07/19 06:58:37;;;;;;;3.45;1.05;;;26.50;47.20;;;;;;5070604;28;20194;-76
2022/07/19 07:01:09;;;;;;;1.50;0.88;;;26.50;47.00;;;;;;5070054;28;20201;-78
2022/07/19 07:03:40;;;;;;;3.33;1.00;;;26.60;47.30;;;;;;5071637;28;20288;-76
2022/07/19 07:06:08;;;;;;;2.67;0.80;;;26.60;47.40;;;;;;5068479;28;20218;-76
2022/07/19 07:08:37;;;;;;;3.83;1.02;;;26.70;47.60;;;;;;5071934;28;20202;-77
2022/07/19 07:11:05;;;;;;;2.58;0.93;;;26.80;47.70;;;;;;5072006;28;20206;-77
2022/07/19 07:13:34;;;;;;;3.38;0.80;;;26.80;47.50;;;;;;5070047;28;20194;-78
2022/07/19 07:16:02;;;;;;;2.70;0.90;;;27.00;47.30;;;;;;5053745;28;20237;-78
2022/07/19 07:18:31;;;;;;;2.90;1.10;;;27.00;46.90;;;;;;5065105;28;20195;-76
2022/07/19 07:21:01;;;;;;;4.40;0.80;;;27.10;46.70;;;;;;5063446;28;20197;-78
2022/07/19 07:23:29;;;;;;;2.42;0.82;;;27.10;46.50;;;;;;5062840;28;20206;-76
2022/07/19 07:25:58;;;;;;;2.80;0.93;;;27.20;46.10;;;;;;5067514;28;20232;-77
2022/07/19 07:28:27;;;;;;;1.60;0.73;;;27.20;46.10;;;;;;5063230;28;20226;-78
2022/07/19 07:30:55;;;;;;;2.28;0.65;;;27.30;46.00;;;;;;5070200;28;20699;-78
2022/07/19 07:33:24;;;;;;;2.30;0.70;;;27.40;45.80;;;;;;5064788;28;20225;-78
2022/07/19 07:35:52;;;;;;;2.03;0.80;;;27.40;45.70;;;;;;5063847;28;20201;-79
2022/07/19 07:38:22;;;;;;;2.05;0.90;;;27.50;45.80;;;;;;5061717;28;20210;-77
2022/07/19 07:40:51;;;;;;;2.10;0.90;;;27.50;45.90;;;;;;5070713;28;20202;-77
2022/07/19 07:43:39;;;;;;;1.50;0.85;;;27.60;45.70;;;;;;5068568;28;20187;-76
2022/07/19 07:46:07;;;;;;;1.42;0.70;;;27.70;45.50;;;;;;5065222;28;20695;-76
2022/07/19 07:48:36;;;;;;;4.68;0.60;;;27.70;45.10;;;;;;5069281;28;20241;-76
2022/07/19 07:51:04;;;;;;;8.55;0.98;;;27.70;45.00;;;;;;5062492;28;20206;-75
2022/07/19 07:53:54;;;;;;;1.55;0.65;;;27.80;45.00;;;;;;5061385;28;20821;-77
2022/07/19 07:56:24;;;;;;;2.15;0.80;;;27.80;44.90;;;;;;5070206;28;20886;-79
2022/07/19 07:58:52;;;;;;;1.27;0.63;;;27.90;44.60;;;;;;5061786;28;20199;-76
2022/07/19 08:01:21;;;;;;;1.67;0.80;;;27.90;44.60;;;;;;5060248;28;20210;-79
2022/07/19 08:03:50;;;;;;;1.33;0.80;;;27.90;44.70;;;;;;5059959;28;20208;-79
2022/07/19 08:06:18;;;;;;;1.58;0.70;;;28.00;44.70;;;;;;5067565;28;20815;-78
2022/07/19 08:08:47;;;;;;;1.80;0.77;;;28.00;44.60;;;;;;5063336;28;20277;-79
2022/07/19 08:11:18;;;;;;;1.77;0.82;;;28.10;44.30;;;;;;5069011;28;20190;-78
2022/07/19 08:13:46;;;;;;;3.30;0.90;;;28.10;43.70;;;;;;5069655;28;20225;-77
2022/07/19 08:16:16;;;;;;;5.07;0.70;;;28.10;43.80;;;;;;5067585;28;20920;-77
2022/07/19 08:18:45;;;;;;;2.13;0.68;;;28.20;43.30;;;;;;5065259;28;20240;-80
2022/07/19 08:21:16;;;;;;;3.53;0.70;;;28.20;42.60;;;;;;5064362;28;20195;-77
2022/07/19 08:23:44;;;;;;;2.38;0.70;;;28.30;41.90;;;;;;5066560;28;20190;-76
2022/07/19 08:26:13;;;;;;;1.17;0.60;;;28.30;42.30;;;;;;5063833;28;20225;-79
2022/07/19 08:28:43;;;;;;;1.48;0.70;;;28.30;42.50;;;;;;5066693;28;20220;-80
2022/07/19 08:31:11;;;;;;;5.07;2.30;;;28.40;42.30;;;;;;5065386;28;20198;-79
2022/07/19 08:33:41;;;;;;;6.45;2.33;;;28.40;42.20;;;;;;5066504;28;20786;-80
2022/07/19 08:36:10;;;;;;;5.40;1.40;;;28.40;42.40;;;;;;5064487;28;20279;-77
2022/07/19 08:38:39;;;;;;;2.33;0.70;;;28.50;42.40;;;;;;5065892;28;20213;-78
2022/07/19 08:41:08;;;;;;;0.77;0.60;;;28.50;42.40;;;;;;5060888;28;20198;-80
2022/07/19 08:43:37;;;;;;;2.58;0.80;;;28.50;41.80;;;;;;5064772;28;20285;-79
2022/07/19 08:46:07;;;;;;;1.35;0.93;;;28.50;41.60;;;;;;5068086;28;20210;-79
2022/07/19 08:48:36;;;;;;;3.22;0.75;;;28.50;41.80;;;;;;5066414;28;20187;-78
2022/07/19 08:51:18;;;;;;;1.75;0.80;;;28.60;42.10;;;;;;5059993;28;20189;-79
2022/07/19 08:53:46;;;;;;;2.42;0.82;;;28.60;41.70;;;;;;5066823;28;20683;-79
2022/07/19 08:59:01;;;;;;;3.20;0.90;;;28.70;41.80;;;;;;5064904;28;20187;-80
2022/07/19 09:01:31;;;;;;;2.88;0.73;;;28.70;41.30;;;;;;5061907;28;20202;-80
2022/07/19 09:04:07;;;;;;;2.05;0.88;;;28.70;41.10;;;;;;5068062;28;20198;-80
2022/07/19 09:06:41;;;;;;;1.45;0.80;;;28.70;41.00;;;;;;5064285;28;20213;-80
2022/07/19 09:09:09;;;;;;;2.88;1.30;;;28.70;41.30;;;;;;5065958;28;20807;-78
2022/07/19 09:11:40;;;;;;;2.72;0.93;;;28.80;41.60;;;;;;5066116;28;20887;-79
2022/07/19 09:14:10;;;;;;;4.72;1.10;;;28.80;41.80;;;;;;5073180;28;20190;-79
2022/07/19 09:16:56;;;;;;;2.75;0.82;;;28.90;41.30;;;;;;5062897;28;20218;-77
2022/07/19 09:19:26;;;;;;;3.58;1.00;;;28.90;40.90;;;;;;5062704;28;20194;-79
2022/07/19 09:21:57;;;;;;;3.97;0.88;;;28.90;41.10;;;;;;5067915;28;20194;-77
2022/07/19 09:24:26;;;;;;;2.60;0.90;;;28.90;41.50;;;;;;5070637;28;20674;-82
2022/07/19 09:27:05;;;;;;;1.48;0.80;;;29.00;41.80;;;;;;5070938;28;20214;-79
2022/07/19 09:29:36;;;;;;;2.30;0.77;;;29.00;41.20;;;;;;5067519;28;20197;-79
2022/07/19 09:32:12;;;;;;;2.35;0.95;;;29.10;41.00;;;;;;5067249;28;20233;-78
2022/07/19 09:34:44;;;;;;;1.65;0.80;;;29.10;41.00;;;;;;5059688;28;20213;-78
2022/07/19 09:37:15;;;;;;;2.22;0.90;;;29.20;41.00;;;;;;5063191;28;20285;-79
2022/07/19 09:39:46;;;;;;;3.83;0.98;;;29.20;40.50;;;;;;5066754;28;20197;-78
2022/07/19 09:42:17;;;;;;;2.45;0.90;;;29.20;40.20;;;;;;5069296;28;20840;-82
2022/07/19 09:44:47;;;;;;;2.30;0.70;;;29.30;40.70;;;;;;5067757;28;20178;-77
2022/07/19 09:47:32;;;;;;;2.05;0.88;;;29.30;40.70;;;;;;5073057;28;20305;-78
2022/07/19 09:50:01;;;;;;;1.65;0.90;;;29.30;40.90;;;;;;5070455;28;20282;-78
2022/07/19 09:52:30;;;;;;;2.58;1.02;;;29.40;41.00;;;;;;5072623;28;20668;-80
2022/07/19 09:55:09;;;;;;;1.30;0.73;;;29.50;40.80;;;;;;5068604;28;20197;-79
2022/07/19 09:57:41;;;;;;;5.60;1.38;;;29.50;41.00;;;;;;5067943;28;20249;-77
2022/07/19 10:00:11;;;;;;;4.72;0.80;;;29.60;40.80;;;;;;5070647;28;20412;-78
2022/07/19 10:02:44;;;;;;;2.83;0.80;;;29.70;40.70;;;;;;5075531;28;20221;-79
2022/07/19 10:05:15;;;;;;;1.25;0.80;;;29.70;40.90;;;;;;5052004;28;20199;-79
2022/07/19 10:07:44;;;;;;;1.45;0.85;;;29.70;40.20;;;;;;5069784;28;20210;-79
2022/07/19 10:10:16;;;;;;;3.72;0.98;;;29.80;40.80;;;;;;5064939;28;20286;-78
2022/07/19 10:12:47;;;;;;;1.30;0.70;;;29.90;41.30;;;;;;5077546;28;20324;-79
2022/07/19 10:15:18;;;;;;;3.92;0.77;;;29.90;41.30;;;;;;5054823;28;20349;-80
2022/07/19 10:18:02;;;;;;;6.10;0.90;;;30.00;41.10;;;;;;5061951;28;20207;-79
2022/07/19 10:20:32;;;;;;;2.55;0.80;;;30.00;40.80;;;;;;5061564;28;20281;-80
2022/07/19 10:23:01;;;;;;;5.13;1.00;;;30.10;40.20;;;;;;5060969;28;20199;-79
2022/07/19 10:25:44;;;;;;;2.38;0.73;;;30.10;39.90;;;;;;5062404;28;20195;-78
2022/07/19 10:28:30;;;;;;;6.28;1.23;;;30.20;40.20;;;;;;5076265;28;20599;-81
2022/07/19 10:31:27;;;;;;;2.20;0.90;;;30.20;40.00;;;;;;5060666;28;20242;-79
2022/07/19 10:34:02;;;;;;;1.70;0.70;;;30.30;40.30;;;;;;5066027;28;20213;-80
2022/07/19 10:36:36;;;;;;;5.05;0.95;;;30.30;40.50;;;;;;5059285;28;20194;-78
2022/07/19 10:39:26;;;;;;;2.17;0.93;;;30.30;40.50;;;;;;5060553;28;20217;-81
2022/07/19 10:42:08;;;;;;;2.40;0.93;;;30.40;40.40;;;;;;5078703;28;20182;-80
2022/07/19 10:45:06;;;;;;;2.05;0.75;;;30.50;40.70;;;;;;5058871;28;20193;-79
2022/07/19 10:47:59;;;;;;;4.22;0.85;;;30.50;40.40;;;;;;5061119;28;20224;-82
2022/07/19 10:54:05;;;;;;;1.40;0.80;;;30.60;40.20;;;;;;5123370;27;20580;-76
2022/07/19 10:56:41;;;;;;;2.55;0.93;;;30.70;39.70;;;;;;5121354;27;20282;-80
2022/07/19 10:59:32;;;;;;;1.35;0.50;;;30.70;39.40;;;;;;5111216;27;20204;-81
2022/07/19 11:02:02;;;;;;;1.20;0.75;;;30.70;39.60;;;;;;5127126;27;20187;-81
2022/07/19 11:04:51;;;;;;;4.43;0.90;;;30.80;39.50;;;;;;5117249;27;20556;-82
2022/07/19 11:07:22;;;;;;;1.48;0.80;;;30.80;39.20;;;;;;5121254;27;20211;-80
2022/07/19 11:10:02;;;;;;;1.65;0.90;;;30.80;39.30;;;;;;5116714;27;20605;-79
2022/07/19 11:12:33;;;;;;;2.20;1.10;;;30.80;38.80;;;;;;5124723;27;20211;-79
2022/07/19 11:15:05;;;;;;;2.15;0.70;;;30.90;38.40;;;;;;5121594;27;20271;-78
2022/07/19 11:18:00;;;;;;;3.30;1.00;;;30.90;39.00;;;;;;5127901;27;20754;-79
2022/07/19 11:20:30;;;;;;;2.05;0.90;;;30.90;38.40;;;;;;5128162;27;20227;-79
2022/07/19 11:23:00;;;;;;;1.08;0.68;;;30.90;38.60;;;;;;5113510;27;20193;-80
2022/07/19 11:25:32;;;;;;;2.65;1.00;;;30.90;38.60;;;;;;5118336;27;20196;-81
2022/07/19 11:28:01;;;;;;;3.38;1.02;;;31.00;38.90;;;;;;5130307;27;20271;-78
2022/07/19 11:30:32;;;;;;;1.90;0.70;;;31.00;38.90;;;;;;5126572;27;20221;-79
2022/07/19 11:33:03;;;;;;;4.20;0.80;;;31.00;38.90;;;;;;5129682;27;20844;-82
2022/07/19 11:35:32;;;;;;;1.05;0.70;;;31.10;38.90;;;;;;5119829;27;20191;-81
2022/07/19 11:38:01;;;;;;;1.52;0.80;;;31.10;38.30;;;;;;5125498;27;20195;-82
2022/07/19 11:40:37;;;;;;;3.25;0.90;;;31.20;38.30;;;;;;5128594;27;20261;-78
2022/07/19 11:43:07;;;;;;;3.80;0.82;;;31.20;37.70;;;;;;5131244;27;20184;-80
2022/07/19 11:45:48;;;;;;;1.80;0.95;;;31.20;37.60;;;;;;5124797;27;20253;-82
2022/07/19 11:48:28;;;;;;;1.02;0.90;;;31.20;37.60;;;;;;5110008;27;20203;-77
2022/07/19 11:51:06;;;;;;;2.60;0.73;;;31.20;37.50;;;;;;5115716;27;20189;-77
2022/07/19 11:53:37;;;;;;;3.33;0.85;;;31.30;37.80;;;;;;5113270;27;20203;-77
2022/07/19 11:56:16;;;;;;;3.65;0.90;;;31.30;37.70;;;;;;5119415;27;20176;-76
2022/07/19 11:58:45;;;;;;;3.58;0.95;;;31.30;37.40;;;;;;5108908;27;20694;-78
2022/07/19 12:01:15;;;;;;;1.60;0.90;;;31.40;37.50;;;;;;5113981;27;20200;-79
2022/07/19 12:03:55;;;;;;;3.72;0.70;;;31.40;37.90;;;;;;5119411;27;20605;-80
2022/07/19 12:06:37;;;;;;;1.15;0.80;;;31.40;37.50;;;;;;5102024;28;20280;-79
2022/07/19 12:09:07;;;;;;;1.65;0.63;;;31.50;37.80;;;;;;5097742;28;20200;-80
2022/07/19 12:11:42;;;;;;;5.30;0.82;;;31.50;37.80;;;;;;5112642;27;20268;-77
2022/07/19 12:14:21;;;;;;;2.03;1.00;;;31.50;37.90;;;;;;5106425;28;20184;-79
2022/07/19 12:16:51;;;;;;;1.52;0.90;;;31.60;37.70;;;;;;5095712;28;20872;-78
2022/07/19 12:19:20;;;;;;;1.70;0.80;;;31.60;37.70;;;;;;5108428;28;20254;-77
2022/07/19 12:21:48;;;;;;;2.55;1.13;;;31.70;38.10;;;;;;5097851;28;20594;-78
2022/07/19 12:24:22;;;;;;;1.00;0.75;;;31.80;38.10;;;;;;5102567;27;20193;-77
2022/07/19 12:27:04;;;;;;;3.25;0.77;;;31.80;38.10;;;;;;5098900;27;21143;-76
2022/07/19 12:29:35;;;;;;;1.10;0.80;;;31.90;38.00;;;;;;5094515;28;20220;-79
2022/07/19 12:32:05;;;;;;;0.95;0.73;;;32.00;38.20;;;;;;5093606;27;20357;-79
2022/07/19 12:34:46;;;;;;;1.27;0.77;;;32.00;38.00;;;;;;5093961;28;20276;-78
2022/07/19 12:37:23;;;;;;;0.70;0.70;;;32.10;37.80;;;;;;5104728;27;20192;-80
2022/07/19 12:40:14;;;;;;;1.30;0.73;;;32.10;37.30;;;;;;5105858;27;20193;-77
2022/07/19 12:42:46;;;;;;;1.30;0.70;;;32.10;38.00;;;;;;5097306;28;20204;-77
2022/07/19 12:45:16;;;;;;;1.40;0.82;;;32.20;37.20;;;;;;5111539;27;20194;-75
2022/07/19 12:47:46;;;;;;;2.40;0.80;;;32.20;37.30;;;;;;5095112;27;20185;-77
2022/07/19 12:50:21;;;;;;;2.15;0.60;;;32.20;37.30;;;;;;5109401;27;20792;-78
2022/07/19 12:52:51;;;;;;;0.77;0.60;;;32.30;37.40;;;;;;5101418;28;20304;-79
2022/07/19 12:55:20;;;;;;;10.35;0.70;;;32.30;37.30;;;;;;5100453;28;20197;-80
2022/07/19 12:57:51;;;;;;;0.98;0.70;;;32.30;36.70;;;;;;5103140;27;20220;-77
2022/07/19 13:00:21;;;;;;;1.60;0.70;;;32.30;36.60;;;;;;5111702;27;20189;-79
2022/07/19 13:02:51;;;;;;;2.17;0.80;;;32.30;36.70;;;;;;5106106;28;20311;-82
2022/07/19 13:05:22;;;;;;;1.13;0.77;;;32.30;36.70;;;;;;5103435;27;20680;-79
2022/07/19 13:07:51;;;;;;;1.08;0.80;;;32.40;36.90;;;;;;5109755;28;20599;-78
2022/07/19 13:10:20;;;;;;;2.78;0.77;;;32.40;36.80;;;;;;5107092;27;20798;-77
2022/07/19 13:12:50;;;;;;;2.65;0.70;;;32.40;36.80;;;;;;5115188;27;20221;-80